Terminal Aerodrome Forecast
Issued by NWS

Home | Current Version | Previous Version | Text Only | Print | Product List | Glossary On
Versions: 1 2 3 4 5 6 7 8 9 10 11 12 13 14 15 16 17 18 19 20
072
FTUS43 KPAH 231457 AAA
TAFCGI
TAF AMD
KCGI 231457Z 2315/2412 25007KT P6SM SCT015 OVC030
      TEMPO 2315/2318 BKN015
     FM231800 VRB04KT P6SM OVC015
     FM240000 02005KT 5SM -SHRA BR OVC009
     FM240500 06008KT 3SM -SHRA BR OVC004=

USA.gov is the U.S. government's official web portal to all federal, state and local government web resources and services.